createdAt,value
2022-12-23T00:01:36.402Z,77.66
2022-12-23T00:03:39.466Z,78.30
2022-12-23T00:05:42.168Z,77.83
2022-12-23T00:07:45.405Z,78.60
2022-12-23T00:09:47.950Z,78.79
2022-12-23T00:12:08.457Z,78.66
2022-12-23T00:14:28.678Z,79.04
2022-12-23T00:16:31.515Z,79.67
2022-12-23T00:18:36.284Z,79.62
2022-12-23T00:20:38.914Z,80.18
2022-12-23T00:22:59.293Z,80.09
2022-12-23T00:25:01.858Z,80.24
2022-12-23T00:27:04.447Z,80.30
2022-12-23T00:29:07.030Z,81.12
2022-12-23T00:31:10.182Z,80.18
2022-12-23T00:33:12.822Z,80.85
2022-12-23T00:35:19.909Z,81.41
2022-12-23T00:37:22.477Z,80.66
2022-12-23T00:39:42.627Z,81.14
2022-12-23T00:42:03.265Z,80.68
2022-12-23T00:44:06.284Z,81.22
2022-12-23T00:46:08.931Z,81.44
2022-12-23T00:48:29.087Z,80.84
2022-12-23T00:50:34.590Z,80.79
2022-12-23T00:52:37.167Z,80.70
2022-12-23T00:54:40.178Z,80.30
2022-12-23T00:56:42.741Z,80.22
2022-12-23T00:58:45.288Z,79.65
2022-12-23T01:01:06.400Z,79.88
2022-12-23T01:03:30.269Z,80.30
2022-12-23T01:05:39.964Z,80.24
2022-12-23T01:07:42.730Z,79.97
2022-12-23T01:09:45.468Z,80.09
2022-12-23T01:11:48.014Z,80.70
2022-12-23T01:13:50.583Z,80.73
2022-12-23T01:15:53.137Z,80.50
2022-12-23T01:17:55.750Z,81.22
2022-12-23T01:19:58.304Z,81.16
2022-12-23T01:22:02.202Z,81.05
2022-12-23T01:24:05.267Z,80.56
2022-12-23T01:26:09.337Z,81.02
2022-12-23T01:28:11.935Z,81.53
2022-12-23T01:30:14.879Z,80.94
2022-12-23T01:32:17.459Z,81.74
2022-12-23T01:34:20.232Z,82.21
2022-12-23T01:36:23.512Z,81.96
2022-12-23T01:38:27.428Z,81.74
2022-12-23T01:40:35.686Z,82.05
2022-12-23T01:42:43.467Z,82.10
2022-12-23T01:44:52.199Z,82.38
2022-12-23T01:46:54.752Z,81.64
2022-12-23T01:48:58.160Z,82.05
2022-12-23T01:51:05.396Z,82.47
2022-12-23T01:53:15.639Z,82.38
2022-12-23T01:55:23.329Z,82.20
2022-12-23T01:57:26.118Z,82.10
2022-12-23T01:59:46.520Z,82.18
2022-12-23T02:02:06.662Z,81.75
2022-12-23T02:04:14.146Z,81.95
2022-12-23T02:06:39.451Z,82.39
2022-12-23T02:08:56.148Z,82.05
2022-12-23T02:11:17.665Z,82.59
2022-12-23T02:13:32.200Z,82.00
2022-12-23T02:15:58.317Z,82.21
2022-12-23T02:18:19.958Z,82.56
2022-12-23T02:21:00.425Z,83.36
2022-12-23T02:23:32.746Z,83.07
2022-12-23T02:25:51.780Z,83.63
2022-12-23T02:28:20.016Z,83.68
2022-12-23T02:30:31.009Z,83.49
2022-12-23T02:32:50.147Z,84.04
2022-12-23T02:34:56.942Z,84.71
2022-12-23T02:37:06.824Z,84.41
2022-12-23T02:39:16.192Z,84.44
2022-12-23T02:41:24.064Z,84.87
2022-12-23T02:43:35.236Z,84.85
2022-12-23T02:45:46.475Z,84.99
2022-12-23T02:47:53.149Z,84.71
2022-12-23T02:49:59.986Z,84.77
2022-12-23T02:52:06.208Z,85.07
2022-12-23T02:54:12.265Z,85.40
2022-12-23T02:56:18.187Z,85.54
2022-12-23T02:58:24.579Z,85.53
2022-12-23T03:00:27.647Z,84.71
2022-12-23T03:02:34.291Z,84.78
2022-12-23T03:04:38.318Z,84.71
2022-12-23T03:06:43.102Z,85.06
2022-12-23T03:08:46.455Z,85.29
2022-12-23T03:11:02.822Z,85.29
2022-12-23T03:13:15.052Z,84.57
2022-12-23T03:15:25.613Z,84.53
2022-12-23T03:17:48.285Z,84.76
2022-12-23T03:19:55.982Z,83.99
2022-12-23T03:22:09.989Z,84.50
2022-12-23T03:24:23.220Z,85.07
2022-12-23T03:26:31.206Z,85.86
2022-12-23T03:28:40.389Z,85.22
2022-12-23T03:30:47.694Z,85.51
2022-12-23T03:32:55.870Z,85.57
2022-12-23T03:35:02.142Z,85.83
2022-12-23T03:37:08.942Z,85.73
2022-12-23T03:39:15.404Z,86.57
2022-12-23T03:41:24.074Z,86.63
2022-12-23T03:43:31.591Z,86.41
2022-12-23T03:45:41.062Z,85.46
2022-12-23T03:47:48.543Z,85.72
2022-12-23T03:49:56.556Z,85.95
2022-12-23T03:52:04.293Z,86.56
2022-12-23T03:54:12.921Z,86.72
2022-12-23T03:56:20.075Z,87.03
2022-12-23T03:58:32.009Z,87.19
2022-12-23T04:00:38.279Z,87.34
2022-12-23T04:02:47.731Z,87.35
2022-12-23T04:05:06.629Z,86.74
2022-12-23T04:07:16.599Z,86.79
2022-12-23T04:09:22.293Z,86.77
2022-12-23T04:11:25.491Z,86.92
2022-12-23T04:13:28.419Z,87.36
2022-12-23T04:15:31.710Z,88.14
2022-12-23T04:17:34.661Z,88.14
2022-12-23T04:19:37.270Z,88.68
2022-12-23T04:21:41.345Z,88.79
2022-12-23T04:23:43.915Z,88.88
2022-12-23T04:25:46.490Z,88.85
2022-12-23T04:27:49.086Z,89.43
2022-12-23T04:29:51.623Z,89.28
2022-12-23T04:31:54.195Z,89.20
2022-12-23T04:33:56.806Z,89.27
2022-12-23T04:36:02.944Z,89.41
2022-12-23T04:38:06.962Z,89.47
2022-12-23T04:40:10.238Z,89.65
2022-12-23T04:42:12.859Z,89.78
2022-12-23T04:44:15.584Z,89.35
2022-12-23T04:46:18.211Z,89.52
2022-12-23T04:48:20.819Z,89.19
2022-12-23T04:50:23.383Z,89.92
2022-12-23T04:52:26.024Z,89.61
2022-12-23T04:54:29.929Z,89.61
2022-12-23T04:56:32.584Z,89.58
2022-12-23T04:58:35.165Z,88.91
2022-12-23T05:00:40.084Z,87.87
2022-12-23T05:02:42.871Z,88.86
2022-12-23T05:04:45.587Z,89.11
2022-12-23T05:06:49.969Z,88.74
2022-12-23T05:08:52.578Z,88.13
2022-12-23T05:10:56.796Z,87.91
2022-12-23T05:12:59.440Z,88.21
2022-12-23T05:15:01.982Z,87.83
2022-12-23T05:17:07.775Z,87.96
2022-12-23T05:19:11.536Z,87.64
2022-12-23T05:21:14.115Z,87.15
2022-12-23T05:23:16.684Z,87.68
2022-12-23T05:25:19.281Z,87.85
2022-12-23T05:27:23.199Z,87.62
2022-12-23T05:29:25.779Z,87.83
2022-12-23T05:31:28.489Z,88.19
2022-12-23T05:33:31.414Z,88.42
2022-12-23T05:35:34.083Z,88.76
2022-12-23T05:37:36.721Z,88.67
2022-12-23T05:39:39.389Z,88.87
2022-12-23T05:41:41.967Z,89.37
2022-12-23T05:43:45.872Z,89.34
2022-12-23T05:45:48.850Z,89.51
2022-12-23T05:47:51.505Z,89.72
2022-12-23T05:49:54.610Z,89.56
2022-12-23T05:51:57.261Z,89.32
2022-12-23T05:53:59.872Z,89.31
2022-12-23T05:56:05.406Z,89.68
2022-12-23T05:58:08.028Z,88.95
2022-12-23T06:00:13.799Z,89.02
2022-12-23T06:02:16.839Z,88.66
2022-12-23T06:04:20.296Z,87.72
2022-12-23T06:06:22.981Z,87.49
2022-12-23T06:08:25.560Z,88.05
2022-12-23T06:10:28.097Z,88.08
2022-12-23T06:12:30.677Z,88.04
2022-12-23T06:14:33.409Z,87.37
2022-12-23T06:16:37.389Z,87.37
2022-12-23T06:18:39.981Z,87.02
2022-12-23T06:20:42.578Z,87.36
2022-12-23T06:22:45.133Z,87.03
2022-12-23T06:24:48.046Z,87.45
2022-12-23T06:26:56.511Z,87.49
2022-12-23T06:28:59.753Z,87.74
2022-12-23T06:31:02.309Z,87.53
2022-12-23T06:33:06.232Z,87.61
2022-12-23T06:35:09.871Z,86.70
2022-12-23T06:37:12.647Z,86.90
2022-12-23T06:39:15.435Z,87.13
2022-12-23T06:41:18.009Z,87.47
2022-12-23T06:43:20.654Z,87.82
2022-12-23T06:45:23.298Z,87.69
2022-12-23T06:47:25.900Z,87.17
2022-12-23T06:49:29.849Z,87.50
2022-12-23T06:51:32.422Z,88.01
2022-12-23T06:53:34.979Z,88.15
2022-12-23T06:55:37.520Z,87.74
2022-12-23T06:57:40.083Z,88.01
2022-12-23T06:59:42.655Z,88.23
2022-12-23T07:01:45.699Z,88.12
2022-12-23T07:03:50.637Z,88.31
2022-12-23T07:05:55.329Z,88.79
2022-12-23T07:07:58.787Z,88.96
2022-12-23T07:10:01.438Z,89.09
2022-12-23T07:12:04.573Z,88.62
2022-12-23T07:14:07.155Z,88.92
2022-12-23T07:16:10.537Z,89.21
2022-12-23T07:18:13.144Z,89.43
2022-12-23T07:20:16.806Z,89.42
2022-12-23T07:22:21.721Z,89.68
2022-12-23T07:24:24.382Z,89.55
2022-12-23T07:26:26.936Z,89.78
2022-12-23T07:28:29.471Z,89.60
2022-12-23T07:30:32.028Z,89.92
2022-12-23T07:32:34.648Z,89.78
2022-12-23T07:34:37.240Z,89.94
2022-12-23T07:36:39.795Z,89.92
2022-12-23T07:38:43.649Z,90.04
2022-12-23T07:40:49.630Z,90.12
2022-12-23T07:42:55.886Z,89.44
2022-12-23T07:44:58.429Z,89.82
2022-12-23T07:47:01.224Z,89.94
2022-12-23T07:49:03.794Z,89.91
2022-12-23T07:51:06.770Z,89.94
2022-12-23T07:53:09.474Z,90.26
2022-12-23T07:55:13.677Z,89.99
2022-12-23T07:57:16.216Z,90.21
2022-12-23T07:59:18.869Z,90.37
2022-12-23T08:01:22.062Z,90.51
2022-12-23T08:03:24.754Z,90.56
2022-12-23T08:05:27.421Z,90.34
2022-12-23T08:07:30.100Z,90.60
2022-12-23T08:09:32.704Z,89.95
2022-12-23T08:11:36.566Z,88.78
2022-12-23T08:13:41.063Z,89.74
2022-12-23T08:15:43.596Z,89.94
2022-12-23T08:17:46.200Z,90.40
2022-12-23T08:19:48.770Z,90.77
2022-12-23T08:21:51.335Z,89.88
2022-12-23T08:23:53.986Z,89.97
2022-12-23T08:26:01.067Z,90.46
2022-12-23T08:28:05.292Z,90.90
2022-12-23T08:30:08.984Z,90.86
2022-12-23T08:32:11.875Z,90.91
2022-12-23T08:34:14.445Z,90.73
2022-12-23T08:36:22.649Z,90.80
2022-12-23T08:38:26.011Z,91.02
2022-12-23T08:40:28.812Z,91.33
2022-12-23T08:42:31.425Z,91.59
2022-12-23T08:44:35.495Z,91.77
2022-12-23T08:46:38.921Z,92.01
2022-12-23T08:48:47.081Z,91.88
2022-12-23T08:50:51.855Z,91.86
2022-12-23T08:52:54.390Z,91.77
2022-12-23T08:54:57.029Z,91.42
2022-12-23T08:56:59.618Z,92.41
2022-12-23T08:59:02.950Z,92.77
2022-12-23T09:01:08.756Z,92.74
2022-12-23T09:03:11.517Z,93.01
2022-12-23T09:05:14.207Z,92.99
2022-12-23T09:07:16.749Z,93.17
2022-12-23T09:09:19.322Z,93.38
2022-12-23T09:11:23.925Z,92.59
2022-12-23T09:13:34.595Z,92.32
2022-12-23T09:15:42.238Z,93.16
2022-12-23T09:17:46.217Z,93.43
2022-12-23T09:19:53.025Z,93.74
2022-12-23T09:21:56.584Z,93.75
2022-12-23T09:23:59.245Z,94.16
2022-12-23T09:26:02.016Z,94.02
2022-12-23T09:28:04.903Z,94.21
2022-12-23T09:30:08.615Z,94.62
2022-12-23T09:32:11.184Z,94.80
2022-12-23T09:34:15.198Z,94.71
2022-12-23T09:36:18.382Z,94.77
2022-12-23T09:38:20.969Z,95.16
2022-12-23T09:40:23.659Z,94.98
2022-12-23T09:42:38.937Z,94.99
2022-12-23T09:44:55.810Z,94.99
2022-12-23T09:47:03.253Z,95.23
2022-12-23T09:49:11.244Z,95.33
2022-12-23T09:51:18.330Z,95.20
2022-12-23T09:53:23.912Z,95.33
2022-12-23T09:55:33.255Z,95.31
2022-12-23T09:57:43.094Z,95.27
2022-12-23T09:59:59.877Z,95.47
2022-12-23T10:02:15.671Z,95.32
2022-12-23T10:04:41.277Z,95.23
2022-12-23T10:06:52.340Z,95.53
2022-12-23T10:09:01.359Z,95.58
2022-12-23T10:11:13.852Z,95.30
2022-12-23T10:13:26.562Z,95.38
2022-12-23T10:15:34.293Z,95.59
2022-12-23T10:17:42.531Z,95.52
2022-12-23T10:19:47.823Z,95.68
2022-12-23T10:21:53.764Z,95.34
2022-12-23T10:23:56.871Z,95.34
2022-12-23T10:25:59.832Z,95.36
2022-12-23T10:28:02.398Z,95.47
2022-12-23T10:30:42.659Z,94.96
2022-12-23T10:32:50.950Z,93.71
2022-12-23T10:34:59.669Z,94.09
2022-12-23T10:37:10.480Z,94.28
2022-12-23T10:39:25.633Z,94.24
2022-12-23T10:41:39.005Z,94.00
2022-12-23T10:43:51.246Z,92.70
2022-12-23T10:46:03.781Z,93.29
2022-12-23T10:48:20.318Z,93.04
2022-12-23T10:50:50.316Z,93.13
2022-12-23T10:52:58.637Z,93.15
2022-12-23T10:55:01.225Z,91.10
2022-12-23T10:57:06.592Z,90.49
2022-12-23T10:59:15.036Z,90.63
2022-12-23T11:01:26.456Z,89.19
2022-12-23T11:03:32.225Z,89.24
2022-12-23T11:05:35.547Z,87.38
2022-12-23T11:07:46.266Z,87.74
2022-12-23T11:09:53.595Z,86.60
2022-12-23T11:11:59.101Z,85.71
2022-12-23T11:14:01.669Z,86.05
2022-12-23T11:16:23.859Z,86.54
2022-12-23T11:18:26.501Z,86.46
2022-12-23T11:20:29.698Z,86.06
2022-12-23T11:22:32.351Z,85.16
2022-12-23T11:24:41.306Z,85.44
2022-12-23T11:26:50.468Z,85.83
2022-12-23T11:28:58.298Z,86.09
2022-12-23T11:31:08.594Z,86.16
2022-12-23T11:33:24.076Z,85.24
2022-12-23T11:35:29.551Z,84.87
2022-12-23T11:37:37.500Z,85.13
2022-12-23T11:39:47.694Z,85.43
2022-12-23T11:41:54.253Z,85.65
2022-12-23T11:44:01.374Z,85.58
2022-12-23T11:46:19.657Z,85.93
2022-12-23T11:48:29.291Z,85.83
2022-12-23T11:50:35.597Z,86.09
2022-12-23T11:52:38.463Z,85.77
2022-12-23T11:54:41.171Z,86.37
2022-12-23T11:56:44.686Z,86.43
2022-12-23T11:58:54.319Z,86.87
2022-12-23T12:01:00.242Z,87.43
2022-12-23T12:03:05.003Z,87.60
2022-12-23T12:05:22.842Z,87.62
2022-12-23T12:07:26.993Z,88.00
2022-12-23T12:09:31.751Z,88.22
2022-12-23T12:11:39.304Z,88.11
2022-12-23T12:13:44.618Z,88.47
2022-12-23T12:15:57.263Z,88.69
2022-12-23T12:18:01.978Z,88.69
2022-12-23T12:20:10.439Z,88.76
2022-12-23T12:22:17.459Z,88.45
2022-12-23T12:24:27.055Z,88.69
2022-12-23T12:26:32.054Z,89.03
2022-12-23T12:28:39.758Z,88.58
2022-12-23T12:30:50.222Z,88.95
2022-12-23T12:32:59.859Z,89.23
2022-12-23T12:35:06.985Z,89.35
2022-12-23T12:37:18.906Z,89.38
2022-12-23T12:39:27.547Z,89.88
2022-12-23T12:41:35.360Z,89.71
2022-12-23T12:43:44.480Z,90.12
2022-12-23T12:45:53.978Z,90.28
2022-12-23T12:48:18.727Z,90.62
2022-12-23T12:50:28.042Z,90.51
2022-12-23T12:52:37.425Z,90.79
2022-12-23T12:54:45.211Z,90.29
2022-12-23T12:56:51.239Z,90.41
2022-12-23T12:58:53.876Z,90.57
2022-12-23T13:01:07.955Z,90.56
2022-12-23T13:03:31.111Z,90.53
2022-12-23T13:05:53.343Z,89.33
2022-12-23T13:08:08.623Z,88.96
2022-12-23T13:10:18.810Z,89.24
2022-12-23T13:12:25.535Z,89.05
2022-12-23T13:14:35.759Z,89.11
2022-12-23T13:16:47.484Z,88.42
2022-12-23T13:18:56.727Z,88.36
2022-12-23T13:21:06.707Z,87.79
2022-12-23T13:23:42.281Z,85.66
2022-12-23T13:25:44.083Z,84.16
2022-12-23T13:27:56.578Z,84.28
2022-12-23T13:30:13.826Z,83.80
2022-12-23T13:32:27.163Z,83.72
2022-12-23T13:34:41.647Z,83.37
2022-12-23T13:36:51.426Z,82.58
2022-12-23T13:39:08.011Z,83.05
2022-12-23T13:41:19.101Z,81.94
2022-12-23T13:43:26.080Z,82.74
2022-12-23T13:45:34.371Z,82.80
2022-12-23T13:47:47.317Z,83.36
2022-12-23T13:50:02.990Z,81.22
2022-12-23T13:52:11.235Z,81.88
2022-12-23T13:54:23.750Z,82.37
2022-12-23T13:56:34.495Z,81.36
2022-12-23T13:58:40.016Z,81.62
2022-12-23T14:00:42.629Z,81.71
2022-12-23T14:02:51.703Z,81.82
2022-12-23T14:05:02.027Z,81.95
2022-12-23T14:07:17.861Z,81.66
2022-12-23T14:09:31.273Z,81.32
2022-12-23T14:11:35.192Z,81.79
2022-12-23T14:13:43.553Z,81.86
2022-12-23T14:16:02.648Z,82.11
2022-12-23T14:18:19.125Z,82.30
2022-12-23T14:20:32.628Z,82.32
2022-12-23T14:22:54.452Z,82.47
2022-12-23T14:25:35.654Z,82.67
2022-12-23T14:27:50.356Z,82.82
2022-12-23T14:30:06.090Z,82.52
2022-12-23T14:32:20.958Z,82.63
2022-12-23T14:34:30.766Z,82.20
2022-12-23T14:36:34.746Z,82.65
2022-12-23T14:38:37.342Z,81.77
2022-12-23T14:40:55.446Z,82.33
2022-12-23T14:43:26.596Z,82.35
2022-12-23T14:45:35.381Z,80.82
2022-12-23T14:47:40.616Z,81.39
2022-12-23T14:49:44.816Z,82.01
2022-12-23T14:51:50.827Z,81.50
2022-12-23T14:54:15.092Z,81.72
2022-12-23T14:56:23.802Z,81.18
2022-12-23T14:58:39.284Z,81.71
2022-12-23T15:00:48.600Z,82.40
2022-12-23T15:02:58.231Z,81.70
2022-12-23T15:05:01.567Z,81.72
2022-12-23T15:07:08.610Z,82.29
2022-12-23T15:09:24.660Z,81.68
2022-12-23T15:11:30.323Z,81.92
2022-12-23T15:13:34.048Z,82.30
2022-12-23T15:15:36.719Z,81.96
2022-12-23T15:17:39.636Z,82.33
2022-12-23T15:19:46.291Z,82.87
2022-12-23T15:21:56.520Z,82.16
2022-12-23T15:24:15.354Z,82.08
2022-12-23T15:26:18.414Z,82.82
2022-12-23T15:28:23.614Z,82.88
2022-12-23T15:30:28.760Z,83.45
2022-12-23T15:32:31.413Z,83.61
2022-12-23T15:34:35.136Z,83.96
2022-12-23T15:36:37.881Z,83.52
2022-12-23T15:38:40.777Z,83.08
2022-12-23T15:40:58.830Z,83.27
2022-12-23T15:43:02.302Z,83.26
2022-12-23T15:45:31.145Z,83.04
2022-12-23T15:47:41.733Z,83.37
2022-12-23T15:49:44.333Z,83.95
2022-12-23T15:52:10.985Z,84.19
2022-12-23T15:54:21.583Z,84.82
2022-12-23T15:56:28.469Z,84.89
2022-12-23T15:58:34.400Z,85.60
2022-12-23T16:00:41.267Z,85.99
2022-12-23T16:03:02.294Z,85.55
2022-12-23T16:05:07.058Z,85.73
2022-12-23T16:07:25.046Z,86.27
2022-12-23T16:09:34.238Z,85.31
2022-12-23T16:11:50.743Z,85.31
2022-12-23T16:13:58.977Z,85.21
2022-12-23T16:16:20.855Z,85.63
2022-12-23T16:18:26.296Z,85.75
2022-12-23T16:20:28.957Z,85.00
2022-12-23T16:22:36.107Z,85.56
2022-12-23T16:24:39.654Z,85.98
2022-12-23T16:26:44.092Z,85.72
2022-12-23T16:28:49.528Z,86.30
2022-12-23T16:30:54.294Z,86.59
2022-12-23T16:32:59.581Z,86.35
2022-12-23T16:35:11.817Z,86.32
2022-12-23T16:37:14.625Z,85.55
2022-12-23T16:39:22.548Z,85.08
2022-12-23T16:41:25.441Z,84.89
2022-12-23T16:43:29.558Z,84.50
2022-12-23T16:45:33.683Z,84.85
2022-12-23T16:47:37.219Z,83.79
2022-12-23T16:49:40.040Z,84.02
2022-12-23T16:51:43.261Z,84.15
2022-12-23T16:53:45.856Z,83.86
2022-12-23T16:55:55.096Z,83.19
2022-12-23T16:58:00.978Z,83.13
2022-12-23T17:00:05.728Z,82.96
2022-12-23T17:02:19.609Z,82.92
2022-12-23T17:04:22.220Z,83.12
2022-12-23T17:06:25.523Z,83.14
2022-12-23T17:08:28.082Z,83.24
2022-12-23T17:10:30.723Z,82.97
2022-12-23T17:12:33.342Z,82.19
2022-12-23T17:14:35.927Z,82.89
2022-12-23T17:16:41.006Z,83.07
2022-12-23T17:18:43.635Z,82.64
2022-12-23T17:20:47.510Z,81.93
2022-12-23T17:22:53.762Z,81.94
2022-12-23T17:24:56.383Z,81.76
2022-12-23T17:26:59.510Z,82.02
2022-12-23T17:29:03.421Z,82.27
2022-12-23T17:31:13.810Z,82.15
2022-12-23T17:33:22.348Z,82.28
2022-12-23T17:35:25.838Z,82.10
2022-12-23T17:37:31.127Z,80.74
2022-12-23T17:39:33.723Z,80.60
2022-12-23T17:41:39.062Z,80.30
2022-12-23T17:43:41.709Z,80.22
2022-12-23T17:45:45.473Z,79.67
2022-12-23T17:47:48.175Z,80.21
2022-12-23T17:49:52.727Z,79.89
2022-12-23T17:51:55.428Z,79.82
2022-12-23T17:53:59.242Z,79.19
2022-12-23T17:56:01.832Z,78.59
2022-12-23T17:58:04.422Z,78.41
2022-12-23T18:00:08.369Z,77.97
2022-12-23T18:02:21.548Z,77.97
2022-12-23T18:04:24.123Z,78.60
2022-12-23T18:06:29.589Z,78.95
2022-12-23T18:08:32.157Z,78.83
2022-12-23T18:10:37.774Z,78.34
2022-12-23T18:12:42.512Z,78.22
2022-12-23T18:14:45.401Z,78.32
2022-12-23T18:16:48.161Z,78.33
2022-12-23T18:18:51.523Z,78.45
2022-12-23T18:20:56.719Z,78.49
2022-12-23T18:23:01.772Z,77.82
2022-12-23T18:25:04.956Z,77.93
2022-12-23T18:27:14.081Z,78.52
2022-12-23T18:29:16.666Z,78.19
2022-12-23T18:31:21.381Z,77.75
2022-12-23T18:33:28.612Z,77.98
2022-12-23T18:35:33.850Z,78.27
2022-12-23T18:37:36.376Z,77.60
2022-12-23T18:39:40.295Z,76.98
2022-12-23T18:41:42.861Z,77.28
2022-12-23T18:43:46.558Z,77.39
2022-12-23T18:45:53.304Z,78.35
2022-12-23T18:47:56.430Z,80.32
2022-12-23T18:49:58.986Z,81.60
2022-12-23T18:52:01.867Z,82.47
2022-12-23T18:54:04.543Z,83.44
2022-12-23T18:56:13.105Z,83.85
2022-12-23T18:58:17.916Z,84.36
2022-12-23T19:00:22.764Z,84.99
2022-12-23T19:02:25.408Z,85.28
2022-12-23T19:04:28.395Z,86.05
2022-12-23T19:06:30.975Z,86.51
2022-12-23T19:08:35.269Z,87.12
2022-12-23T19:10:37.849Z,88.25
2022-12-23T19:12:41.780Z,88.57
2022-12-23T19:14:44.501Z,88.72
2022-12-23T19:16:51.581Z,89.32
2022-12-23T19:18:55.279Z,89.84
2022-12-23T19:20:57.842Z,90.20
2022-12-23T19:23:00.431Z,89.95
2022-12-23T19:25:06.260Z,89.36
2022-12-23T19:27:09.229Z,90.28
2022-12-23T19:29:13.381Z,90.32
2022-12-23T19:31:17.555Z,89.32
2022-12-23T19:33:20.186Z,88.35
2022-12-23T19:35:22.836Z,88.03
2022-12-23T19:37:25.477Z,87.62
2022-12-23T19:39:28.137Z,87.97
2022-12-23T19:41:30.769Z,87.23
2022-12-23T19:43:33.450Z,87.28
2022-12-23T19:45:37.346Z,87.35
2022-12-23T19:47:39.972Z,87.21
2022-12-23T19:49:42.511Z,87.48
2022-12-23T19:51:45.179Z,87.22
2022-12-23T19:53:51.882Z,88.08
2022-12-23T19:55:59.262Z,87.68
2022-12-23T19:58:02.010Z,88.18
2022-12-23T20:00:05.634Z,87.31
2022-12-23T20:02:13.892Z,87.47
2022-12-23T20:04:17.000Z,88.10
2022-12-23T20:06:21.751Z,88.72
2022-12-23T20:08:24.392Z,88.90
2022-12-23T20:10:26.932Z,89.32
2022-12-23T20:12:29.467Z,89.24
2022-12-23T20:14:34.282Z,89.14
2022-12-23T20:16:37.893Z,89.29
2022-12-23T20:18:41.858Z,89.61
2022-12-23T20:20:44.738Z,89.81
2022-12-23T20:22:47.367Z,90.17
2022-12-23T20:24:50.978Z,90.12
2022-12-23T20:26:53.571Z,90.07
2022-12-23T20:28:56.275Z,90.08
2022-12-23T20:31:07.449Z,90.34
2022-12-23T20:33:10.591Z,89.58
2022-12-23T20:35:14.724Z,89.49
2022-12-23T20:37:17.578Z,88.61
2022-12-23T20:39:20.202Z,87.99
2022-12-23T20:41:24.350Z,87.38
2022-12-23T20:43:26.898Z,86.21
2022-12-23T20:45:29.478Z,86.61
2022-12-23T20:47:32.038Z,86.82
2022-12-23T20:49:34.668Z,86.16
2022-12-23T20:51:38.577Z,86.74
2022-12-23T20:53:41.677Z,86.92
2022-12-23T20:55:44.322Z,86.33
2022-12-23T20:57:46.902Z,85.98
2022-12-23T20:59:49.500Z,86.72
2022-12-23T21:01:52.265Z,86.55
2022-12-23T21:03:56.334Z,86.62
2022-12-23T21:05:58.923Z,86.78
2022-12-23T21:08:02.847Z,87.12
2022-12-23T21:10:06.014Z,84.18
2022-12-23T21:12:08.841Z,83.33
2022-12-23T21:14:12.002Z,82.65
2022-12-23T21:16:14.899Z,81.71
2022-12-23T21:18:17.929Z,81.13
2022-12-23T21:20:20.490Z,81.31
2022-12-23T21:22:23.074Z,81.56
2022-12-23T21:24:27.145Z,81.50
2022-12-23T21:26:31.374Z,82.10
2022-12-23T21:28:34.045Z,82.42
2022-12-23T21:30:36.649Z,83.06
2022-12-23T21:32:39.325Z,83.18
2022-12-23T21:34:41.938Z,82.68
2022-12-23T21:36:45.477Z,83.30
2022-12-23T21:38:48.943Z,83.47
2022-12-23T21:40:59.482Z,83.28
2022-12-23T21:43:08.299Z,83.63
2022-12-23T21:45:11.711Z,84.03
2022-12-23T21:47:14.781Z,81.99
2022-12-23T21:49:17.609Z,81.75
2022-12-23T21:51:22.641Z,80.56
2022-12-23T21:53:25.378Z,80.36
2022-12-23T21:55:27.973Z,80.16
2022-12-23T21:57:31.972Z,80.32
2022-12-23T21:59:35.441Z,80.41
2022-12-23T22:01:38.591Z,80.04
2022-12-23T22:03:42.487Z,79.34
2022-12-23T22:05:45.075Z,79.33
2022-12-23T22:07:47.652Z,79.16
2022-12-23T22:09:51.253Z,79.35
2022-12-23T22:11:53.821Z,79.69
2022-12-23T22:13:59.453Z,79.50
2022-12-23T22:16:02.171Z,79.63
2022-12-23T22:18:04.998Z,78.91
2022-12-23T22:20:08.771Z,78.66
2022-12-23T22:22:11.354Z,77.69
2022-12-23T22:24:13.977Z,75.83
2022-12-23T22:26:24.634Z,75.91
2022-12-23T22:28:28.466Z,75.34
2022-12-23T22:30:32.672Z,75.23
2022-12-23T22:32:40.590Z,75.39
2022-12-23T22:34:44.944Z,75.42
2022-12-23T22:36:48.199Z,74.68
2022-12-23T22:38:53.386Z,73.61
2022-12-23T22:40:56.019Z,73.81
2022-12-23T22:42:58.594Z,74.14
2022-12-23T22:45:01.392Z,74.10
2022-12-23T22:47:05.491Z,73.53
2022-12-23T22:49:08.124Z,73.19
2022-12-23T22:51:15.643Z,73.17
2022-12-23T22:53:18.279Z,72.04
2022-12-23T22:55:20.861Z,71.85
2022-12-23T22:57:23.488Z,71.21
2022-12-23T22:59:26.486Z,71.14
2022-12-23T23:01:31.532Z,71.11
2022-12-23T23:03:35.529Z,71.80
2022-12-23T23:05:38.133Z,72.42
2022-12-23T23:07:40.773Z,70.81
2022-12-23T23:09:43.738Z,70.94
2022-12-23T23:11:46.401Z,70.93
2022-12-23T23:13:48.994Z,71.97
2022-12-23T23:15:51.588Z,72.34
2022-12-23T23:17:54.124Z,71.48
2022-12-23T23:19:58.085Z,72.21
2022-12-23T23:22:01.049Z,72.38
2022-12-23T23:24:03.724Z,72.62
2022-12-23T23:26:08.636Z,72.55
2022-12-23T23:28:11.752Z,72.14
2022-12-23T23:30:14.569Z,71.40
2022-12-23T23:32:17.228Z,72.23
2022-12-23T23:34:19.955Z,72.74
2022-12-23T23:36:23.932Z,72.83
2022-12-23T23:38:28.289Z,72.73
2022-12-23T23:40:31.096Z,73.39
2022-12-23T23:42:34.409Z,73.59
2022-12-23T23:44:37.004Z,73.18
2022-12-23T23:46:40.121Z,73.71
2022-12-23T23:48:42.726Z,74.14
2022-12-23T23:50:45.936Z,74.18
2022-12-23T23:52:50.041Z,74.84
2022-12-23T23:54:52.822Z,74.90
2022-12-23T23:56:55.404Z,75.43
2022-12-23T23:58:57.996Z,75.05
